Airfield :
LOGIN :

Register | Disclaimer

   EN    FR    IT 

 










Legend :    VFR   Marginal VFR   IFR   Intensive IFR   Very Intensive IFR
Visi :
Ceiling :
>= 8 km
>= 3000ft
5 to 8 km
1000 to 3000 ft
1500m to 5 km
500 to 1000 ft
800 to 1500m
200 to 500 ft
< 800m
< 200 ft
Symbols :   Thunderstorms  Fog  Heavy snow  Heavy precipitations  Wind > 20 kt
SIGMETs :     Misc.  Thunderstorms  Icing  Turbulence  Mountain Waves  Volcanic Ashes






- Airport Elevation : 46 ft
- IATA code : SNN


EINN - Shannon

CURRENT METAR :
  • 020800Z 36005KT 320V040 9999 FEW013 SCT036 13/09 Q1013 NOSIG

EXPIRED METARs :
  • 020730Z 01005KT 340V060 9999 FEW014 SCT036 BKN060 13/09 Q1013 NOSIG
  • 020700Z 34004KT 9999 FEW021 BKN060 12/10 Q1012 NOSIG
  • 020630Z 31004KT 280V340 9999 FEW021 SCT038 BKN060 12/10 Q1012 NOSIG
  • 020600Z 31004KT 9999 FEW021 BKN060 12/10 Q1012 NOSIG
  • 020530Z 32006KT 9999 FEW021 BKN050 12/10 Q1012 NOSIG
  • 020500Z 31006KT 9999 FEW021 BKN060 12/10 Q1011 NOSIG

TAF TAF EINN
Valid from the 02 at 06:00 until the 03 at 06:00 UTC


020500Z 0206/0306 32008KT 9999 FEW020 BKN045
BECMG 0210/0212 29010KT
BECMG 0215/0217 26012KT
TEMPO 0217/0220 -SHRA BKN012
BECMG 0220/0222 21011KT
BECMG 0300/0302 18012KT -RA SCT008 BKN014
BECMG 0303/0305 22015G25KT
TEMPO 0303/0306 4000 -RADZ BKN008



MET'MAP, your aeronautical weather chart ! - Copyright ORBIFLY December 2007 - Disclaimer

ORBIFLY MET'MAP TEAM :

Programming & Development : Alexandra Zaïnal
Concept & original design : Baudouin d'Aumeries
Assistance for programming : Marc-Olivier Méhu
Technical & hardware support : Manuel Goepfert

Contact : metmap@orbifly.com




SOURCES & CREDITS :

   NOAA